Garfield, Minnesota
Current Conditions -  °F | °C
As of 6:53 PM on Tuesday 21 Oct 2014 (Local Time) from KAXN Reporting Station
Clear Clear  
Wind Chill: 54°   Ceiling: Unl
Heat Index: 54°   Visibility: 10mi
Dew Point: 41°   Wind: 16mph
Humidity: 62%   Direction: 130°SE
Pressure: 30.05"   Gusts: 23mph
Location:  45.94°N, 95.49°W
Report Text: KAXN 212353Z AUTO 13014G20KT 10SM CLR 12/05 A3005 RMK AO2 SLP185 T01220050 10161 20122 51002
Loading
Personal Weather Stations






























Interactive Weather Map
Tropical Storm Tracking
New forecast layout! Learn more

10-Day Weather Forecast

Advertisements
Track Severe Weather on mobile